createdAt,value
2022-12-19T01:54:17.974Z,100.00
2022-12-19T02:28:23.945Z,100.00
2022-12-19T02:34:44.260Z,100.00
2022-12-19T02:47:40.524Z,100.00
2022-12-19T02:53:23.547Z,100.00
2022-12-19T02:58:39.574Z,100.00
2022-12-19T03:03:53.603Z,100.00
2022-12-19T03:09:04.966Z,100.00
2022-12-19T03:14:13.736Z,100.00
2022-12-19T03:19:18.640Z,100.00
2022-12-19T03:24:24.645Z,100.00
2022-12-19T03:29:32.954Z,100.00
2022-12-19T03:34:43.844Z,100.00
2022-12-19T03:39:55.616Z,100.00
2022-12-19T03:45:04.710Z,100.00
2022-12-19T03:50:12.586Z,100.00
2022-12-19T03:55:28.354Z,100.00
2022-12-19T04:00:39.975Z,100.00
2022-12-19T04:05:47.315Z,100.00
2022-12-19T04:11:00.663Z,100.00
2022-12-19T04:16:12.597Z,100.00
2022-12-19T04:21:21.069Z,100.00
2022-12-19T04:26:28.493Z,100.00
2022-12-19T04:31:32.979Z,100.00
2022-12-19T04:36:37.408Z,100.00
2022-12-19T04:41:44.762Z,100.00
2022-12-19T04:46:49.183Z,100.00
2022-12-19T04:51:53.878Z,100.00
2022-12-19T04:57:08.564Z,100.00
2022-12-19T05:02:13.185Z,100.00
2022-12-19T05:07:20.373Z,100.00
2022-12-19T05:12:26.448Z,100.00
2022-12-19T05:17:30.899Z,100.00
2022-12-19T05:22:35.284Z,100.00
2022-12-19T05:27:41.146Z,100.00
2022-12-19T05:32:45.516Z,100.00
2022-12-19T05:37:51.070Z,100.00
2022-12-19T05:42:56.848Z,100.00
2022-12-19T05:48:01.656Z,100.00
2022-12-19T05:53:07.438Z,100.00
2022-12-19T05:58:14.299Z,100.00
2022-12-19T06:03:19.289Z,100.00
2022-12-19T06:08:23.867Z,100.00
2022-12-19T06:13:30.164Z,100.00
2022-12-19T06:18:34.905Z,100.00
2022-12-19T06:23:40.139Z,100.00
2022-12-19T06:28:45.887Z,100.00
2022-12-19T06:33:50.997Z,100.00
2022-12-19T06:38:57.920Z,100.00
2022-12-19T06:44:05.339Z,100.00
2022-12-19T06:49:11.270Z,100.00
2022-12-19T06:54:16.055Z,100.00
2022-12-19T06:59:21.836Z,100.00
2022-12-19T07:04:52.374Z,100.00
2022-12-19T07:09:56.840Z,100.00
2022-12-19T07:15:41.283Z,100.00
2022-12-19T07:20:46.173Z,95.49
2022-12-19T07:25:51.093Z,87.43
2022-12-19T07:30:56.855Z,89.46
2022-12-19T07:36:01.044Z,90.66
2022-12-19T07:41:05.305Z,90.28
2022-12-19T07:46:11.300Z,100.00
2022-12-19T07:51:15.834Z,100.00
2022-12-19T07:56:20.259Z,100.00
2022-12-19T08:01:28.577Z,100.00
2022-12-19T08:06:39.140Z,100.00
2022-12-19T08:11:45.328Z,100.00
2022-12-19T08:17:19.175Z,96.89
2022-12-19T08:22:15.543Z,97.83
2022-12-19T08:27:19.971Z,100.00
2022-12-19T08:32:25.892Z,98.59
2022-12-19T08:37:30.374Z,100.00
2022-12-19T08:42:56.239Z,94.56
2022-12-19T08:48:02.104Z,100.00
2022-12-19T08:53:06.634Z,100.00
2022-12-19T08:58:20.500Z,100.00
2022-12-19T09:03:27.683Z,89.14
2022-12-19T09:08:45.093Z,86.99
2022-12-19T09:13:50.098Z,86.19
2022-12-19T09:18:58.823Z,87.94
2022-12-19T09:24:07.833Z,91.06
2022-12-19T09:29:20.440Z,87.60
2022-12-19T09:34:33.456Z,87.96
2022-12-19T09:39:41.526Z,84.39
2022-12-19T09:45:01.373Z,84.59
2022-12-19T09:50:25.498Z,86.71
2022-12-19T09:55:34.928Z,82.50
2022-12-19T10:00:44.736Z,82.82
2022-12-19T10:07:06.883Z,88.18
2022-12-19T10:12:40.652Z,88.39
2022-12-19T10:17:24.865Z,92.78
2022-12-19T10:22:41.248Z,92.73
2022-12-19T10:27:58.930Z,83.68
2022-12-19T10:33:20.786Z,82.32
2022-12-19T10:38:32.539Z,80.68
2022-12-19T10:43:46.365Z,77.43
2022-12-19T10:48:52.975Z,72.04
2022-12-19T10:54:01.445Z,74.11
2022-12-19T10:59:16.598Z,82.10
2022-12-19T11:04:30.176Z,87.51
2022-12-19T11:09:41.065Z,87.06
2022-12-19T11:20:01.653Z,83.41
2022-12-19T11:29:33.695Z,76.41
2022-12-19T11:30:46.429Z,76.27
2022-12-19T11:36:53.284Z,72.18
2022-12-19T11:42:07.254Z,71.65
2022-12-19T11:47:21.589Z,71.75
2022-12-19T11:53:03.952Z,71.06
2022-12-19T11:58:04.936Z,73.73
2022-12-19T12:03:24.434Z,72.23
2022-12-19T12:11:39.170Z,69.30
2022-12-19T12:25:21.373Z,63.88
2022-12-19T12:31:27.090Z,62.72
2022-12-19T12:31:50.061Z,62.19
2022-12-19T12:42:58.486Z,64.22
2022-12-19T12:48:19.185Z,68.72
2022-12-19T12:53:28.022Z,74.46
2022-12-19T12:59:09.671Z,74.78
2022-12-19T13:04:28.540Z,69.50
2022-12-19T13:09:37.379Z,70.35
2022-12-19T13:14:57.661Z,74.89
2022-12-19T13:20:42.544Z,68.00
2022-12-19T13:26:00.778Z,72.87
2022-12-19T13:39:58.100Z,67.70
2022-12-19T13:46:24.752Z,70.82
2022-12-19T13:51:57.338Z,72.89
2022-12-19T13:57:25.115Z,73.95
2022-12-19T14:02:33.161Z,77.79
2022-12-19T14:08:09.473Z,77.07
2022-12-19T14:19:00.647Z,78.73
2022-12-19T14:24:13.751Z,80.37
2022-12-19T14:29:45.572Z,79.17
2022-12-19T14:36:05.301Z,79.83
2022-12-19T14:40:24.549Z,85.31
2022-12-19T14:52:11.525Z,88.63
2022-12-19T14:54:24.345Z,88.37
2022-12-19T14:57:06.132Z,87.49
2022-12-19T15:02:32.806Z,86.06
2022-12-19T15:07:43.928Z,82.90
2022-12-19T15:14:46.786Z,82.98
2022-12-19T15:18:42.797Z,84.36
2022-12-19T15:23:47.280Z,84.24
2022-12-19T15:28:57.542Z,84.19
2022-12-19T15:34:33.794Z,80.04
2022-12-19T15:39:30.942Z,80.13
2022-12-19T15:44:37.921Z,82.20
2022-12-19T15:49:43.450Z,78.17
2022-12-19T15:54:50.067Z,82.02
2022-12-19T15:59:55.546Z,83.58
2022-12-19T16:05:04.152Z,84.38
2022-12-19T16:10:11.271Z,79.52
2022-12-19T16:15:20.639Z,81.10
2022-12-19T16:20:28.129Z,82.74
2022-12-19T16:25:36.187Z,83.46
2022-12-19T16:30:40.484Z,81.01
2022-12-19T16:41:15.908Z,79.60
2022-12-19T16:46:23.583Z,81.60
2022-12-19T16:51:29.743Z,82.93
2022-12-19T16:56:36.758Z,82.73
2022-12-19T17:01:41.097Z,81.52
2022-12-19T17:06:47.148Z,82.63
2022-12-19T17:11:54.021Z,81.47
2022-12-19T17:16:59.802Z,79.70
2022-12-19T17:22:12.840Z,80.48
2022-12-19T17:27:19.336Z,79.70
2022-12-19T17:32:24.444Z,80.73
2022-12-19T17:37:30.591Z,79.94
2022-12-19T17:42:37.504Z,80.49
2022-12-19T17:47:42.061Z,82.07
2022-12-19T17:52:47.513Z,81.55
2022-12-19T17:57:52.277Z,82.07
2022-12-19T18:02:57.756Z,83.05
2022-12-19T18:08:04.263Z,82.75
2022-12-19T18:13:08.343Z,82.25
2022-12-19T18:18:14.801Z,80.70
2022-12-19T18:23:22.664Z,83.00
2022-12-19T18:28:26.804Z,83.08
2022-12-19T18:33:36.527Z,84.98
2022-12-19T18:38:41.979Z,84.62
2022-12-19T18:43:46.594Z,84.88
2022-12-19T18:48:50.844Z,86.22
2022-12-19T18:53:57.365Z,89.73
2022-12-19T18:59:04.652Z,88.13
2022-12-19T19:04:11.027Z,89.54
2022-12-19T19:09:18.663Z,86.88
2022-12-19T19:14:23.099Z,87.82
2022-12-19T19:19:27.414Z,87.61
2022-12-19T19:24:33.089Z,88.31
2022-12-19T19:29:37.567Z,88.11
2022-12-19T19:34:42.659Z,89.17
2022-12-19T19:39:48.238Z,92.67
2022-12-19T19:44:52.163Z,93.46
2022-12-19T19:49:57.024Z,93.06
2022-12-19T19:55:03.341Z,96.59
2022-12-19T20:00:10.975Z,94.44
2022-12-19T20:05:18.663Z,98.33
2022-12-19T20:10:24.488Z,98.31
2022-12-19T20:15:28.769Z,100.00
2022-12-19T20:20:34.993Z,100.00
2022-12-19T20:25:47.820Z,100.00
2022-12-19T20:30:52.270Z,98.44
2022-12-19T20:35:57.431Z,97.98
2022-12-19T20:41:03.395Z,96.30
2022-12-19T20:46:11.120Z,96.28
2022-12-19T20:51:19.859Z,94.75
2022-12-19T20:56:46.964Z,96.25
2022-12-19T21:01:51.225Z,98.48
2022-12-19T21:07:00.943Z,96.62
2022-12-19T21:12:07.497Z,98.91
2022-12-19T21:17:24.088Z,95.08
2022-12-19T21:22:36.047Z,93.75
2022-12-19T21:27:49.682Z,97.18
2022-12-19T21:33:26.146Z,95.21
2022-12-19T21:38:37.666Z,94.99
2022-12-19T21:43:53.570Z,97.84
2022-12-19T21:49:11.305Z,96.33
2022-12-19T21:54:31.701Z,97.55
2022-12-19T21:59:45.866Z,92.66
2022-12-19T22:04:50.332Z,92.39
2022-12-19T22:09:54.701Z,94.57
2022-12-19T22:15:07.254Z,92.17
2022-12-19T22:20:19.170Z,92.82
2022-12-19T22:25:26.413Z,92.42
2022-12-19T22:30:34.895Z,94.17
2022-12-19T22:35:39.048Z,91.02
2022-12-19T22:40:45.650Z,94.41
2022-12-19T22:45:53.998Z,92.25
2022-12-19T22:50:58.605Z,90.95
2022-12-19T22:56:06.485Z,92.83
2022-12-19T23:01:19.122Z,92.50
2022-12-19T23:06:31.083Z,90.00
2022-12-19T23:11:37.433Z,94.35
2022-12-19T23:16:45.547Z,94.91
2022-12-19T23:21:51.221Z,95.32
2022-12-19T23:26:56.611Z,93.35
2022-12-19T23:32:02.189Z,94.16
2022-12-19T23:37:11.521Z,95.78
2022-12-19T23:42:16.591Z,91.36
2022-12-19T23:47:22.524Z,91.18
2022-12-19T23:52:26.763Z,92.83
2022-12-19T23:57:31.141Z,93.32
